Impacts TAF Board
For situational awareness. Not to be used for flight planning purposes.
IDs:

KACT - Waco Rgnl, TX, US

Issued at 2050 UTC 23 Oct 2019
Updated at 2257 UTC 23 Oct 2019
Potential Impact None Slight Moderate High
Time<<24/11Z 24/12Z 24/13Z 24/14Z 24/15Z 24/16Z 24/17Z 24/18Z 24/19Z 24/20Z 24/21Z 24/22Z 24/23Z>>
Type PRVL PRVL PRVL PRVL PRVL PRVL PRVL
VIS >6 >6 >6 >6 >6 >6 >6
CIG 50 50 15 15 15 15 15
Cover BKN BKN BKN BKN BKN BKN BKN
FltCat VFR VFR MVFR MVFR MVFR MVFR MVFR
WX -- -- -- -- -- -- --
WDir 160 160 150 150 150 150 150
WSpd 12 12 8 8 8 8 8
WGst -- -- -- -- -- -- --
Raw TAF
KACT 232050Z 2321/2418 18016G26KT P6SM SKC
  FM240000 15013KT P6SM SCT250
  FM240900 16012KT P6SM BKN050
  FM241300 15008KT P6SM BKN015


METAR Board
Radar Display
Forecast Discussion
For situational awareness. Not to be used for flight planning purposes.